createdAt,value
2022-11-22T00:00:20.143Z,99710.98
2022-11-22T00:03:55.673Z,99711.85
2022-11-22T00:07:33.460Z,99712.27
2022-11-22T00:11:11.078Z,99693.94
2022-11-22T00:14:51.422Z,99691.27
2022-11-22T00:18:27.000Z,99685.59
2022-11-22T00:22:04.091Z,99682.82
2022-11-22T00:25:41.793Z,99680.22
2022-11-22T00:29:19.600Z,99684.01
2022-11-22T00:32:57.203Z,99681.39
2022-11-22T00:36:34.908Z,99683.58
2022-11-22T00:40:13.023Z,99675.83
2022-11-22T00:43:50.314Z,99665.06
2022-11-22T00:47:27.814Z,99667.47
2022-11-22T00:51:05.723Z,99669.46
2022-11-22T00:54:50.083Z,99651.30
2022-11-22T00:58:21.130Z,99648.16
2022-11-22T01:01:58.834Z,99644.06
2022-11-22T01:05:36.334Z,99636.23
2022-11-22T01:09:18.992Z,99630.09
2022-11-22T01:12:51.844Z,99624.14
2022-11-22T01:16:29.548Z,99629.30
2022-11-22T01:20:08.349Z,99628.05
2022-11-22T01:23:45.061Z,99626.55
2022-11-22T01:27:22.561Z,99620.42
2022-11-22T01:31:00.470Z,99616.08
2022-11-22T01:34:39.437Z,99610.52
2022-11-22T01:38:17.946Z,99606.02
2022-11-22T01:41:54.818Z,99599.52
2022-11-22T01:45:30.976Z,99597.13
2022-11-22T01:49:19.847Z,99603.70
2022-11-22T01:52:46.798Z,99622.80
2022-11-22T01:56:27.252Z,99628.39
2022-11-22T02:00:06.812Z,99629.80
2022-11-22T02:03:42.060Z,99629.82
2022-11-22T02:07:22.622Z,99628.23
2022-11-22T02:10:56.654Z,99620.09
2022-11-22T02:14:34.589Z,99607.84
2022-11-22T02:18:11.235Z,99609.27
2022-11-22T02:21:54.578Z,99608.63
2022-11-22T02:25:40.983Z,99603.19
2022-11-22T02:29:07.937Z,99608.45
2022-11-22T02:32:41.546Z,99612.91
2022-11-22T02:36:18.937Z,99611.95
2022-11-22T02:40:01.153Z,99609.04
2022-11-22T02:43:44.483Z,99608.26
2022-11-22T02:47:12.050Z,99614.17
2022-11-22T02:50:49.672Z,99603.71
2022-11-22T02:54:27.458Z,99600.88
2022-11-22T02:58:06.185Z,99602.23
2022-11-22T03:01:44.913Z,99603.14
2022-11-22T03:05:20.455Z,99600.55
2022-11-22T03:08:58.217Z,99610.44
2022-11-22T03:12:36.184Z,99606.89
2022-11-22T03:16:13.682Z,99603.40
2022-11-22T03:19:51.286Z,99601.29
2022-11-22T03:23:30.322Z,99602.33
2022-11-22T03:27:06.898Z,99605.77
2022-11-22T03:30:44.399Z,99598.06
2022-11-22T03:34:22.100Z,99593.30
2022-11-22T03:37:59.811Z,99590.85
2022-11-22T03:41:38.227Z,99582.76
2022-11-22T03:45:15.214Z,99577.55
2022-11-22T03:48:52.920Z,99572.59
2022-11-22T03:52:30.525Z,99570.45
2022-11-22T03:56:08.326Z,99572.02
2022-11-22T03:59:45.929Z,99569.42
2022-11-22T04:03:32.029Z,99570.05
2022-11-22T04:07:01.441Z,99567.54
2022-11-22T04:10:38.875Z,99570.20
2022-11-22T04:14:35.180Z,99570.80
2022-11-22T04:17:55.066Z,99561.02
2022-11-22T04:21:34.827Z,99560.80
2022-11-22T04:25:15.489Z,99573.95
2022-11-22T04:29:08.528Z,99576.63
2022-11-22T04:32:43.903Z,99572.04
2022-11-22T04:36:04.982Z,99571.86
2022-11-22T04:39:40.673Z,99580.54
2022-11-22T04:43:45.513Z,99577.85
2022-11-22T04:46:56.184Z,99582.00
2022-11-22T04:50:52.322Z,99593.04
2022-11-22T04:54:11.311Z,99592.31
2022-11-22T04:57:50.433Z,99591.67
2022-11-22T05:01:26.921Z,99594.64
2022-11-22T05:05:05.216Z,99600.30
2022-11-22T05:08:42.306Z,99599.58
2022-11-22T05:12:20.013Z,99601.48
2022-11-22T05:15:58.791Z,99603.48
2022-11-22T05:19:35.214Z,99603.52
2022-11-22T05:23:32.684Z,99604.39
2022-11-22T05:26:50.726Z,99598.73
2022-11-22T05:30:28.430Z,99605.83
2022-11-22T05:34:06.552Z,99590.55
2022-11-22T05:37:43.940Z,99598.95
2022-11-22T05:41:21.441Z,99591.44
2022-11-22T05:45:01.798Z,99595.38
2022-11-22T05:48:39.947Z,99593.58
2022-11-22T05:52:16.528Z,99588.54
2022-11-22T05:55:52.260Z,99592.01
2022-11-22T05:59:30.197Z,99585.94
2022-11-22T06:03:07.768Z,99577.04
2022-11-22T06:06:48.372Z,99579.36
2022-11-22T06:10:23.073Z,99589.98
2022-11-22T06:14:05.385Z,99593.04
2022-11-22T06:17:38.605Z,99592.17
2022-11-22T06:21:19.499Z,99591.04
2022-11-22T06:24:53.890Z,99595.30
2022-11-22T06:28:33.336Z,99608.38
2022-11-22T06:32:09.401Z,99610.74
2022-11-22T06:35:47.105Z,99619.89
2022-11-22T06:39:24.924Z,99622.16
2022-11-22T06:43:02.512Z,99622.42
2022-11-22T06:46:41.020Z,99620.90
2022-11-22T06:50:21.705Z,99621.05
2022-11-22T06:53:56.854Z,99630.45
2022-11-22T06:57:33.337Z,99635.91
2022-11-22T07:01:13.544Z,99642.48
2022-11-22T07:05:17.157Z,99652.91
2022-11-22T07:08:26.134Z,99656.68
2022-11-22T07:12:04.966Z,99657.59
2022-11-22T07:15:41.627Z,99654.44
2022-11-22T07:19:22.832Z,99659.33
2022-11-22T07:22:57.156Z,99667.12
2022-11-22T07:26:34.873Z,99672.48
2022-11-22T07:30:13.178Z,99666.48
2022-11-22T07:33:51.193Z,99655.61
2022-11-22T07:37:27.769Z,99650.88
2022-11-22T07:41:06.802Z,99648.23
2022-11-22T07:44:43.492Z,99656.55
2022-11-22T07:48:21.291Z,99646.92
2022-11-22T07:52:02.389Z,99649.39
2022-11-22T07:55:55.160Z,99656.35
2022-11-22T07:59:18.073Z,99657.00
2022-11-22T08:02:51.901Z,99651.33
2022-11-22T08:06:31.745Z,99645.21
2022-11-22T08:10:21.133Z,99642.17
2022-11-22T08:13:45.116Z,99649.02
2022-11-22T08:17:49.241Z,99651.59
2022-11-22T08:21:22.131Z,99649.91
2022-11-22T08:24:40.358Z,99644.59
2022-11-22T08:28:17.878Z,99651.52
2022-11-22T08:31:55.685Z,99652.07
2022-11-22T08:36:16.506Z,99655.84
2022-11-22T08:39:26.358Z,99653.92
2022-11-22T08:43:03.566Z,99660.55
2022-11-22T08:46:41.348Z,99662.94
2022-11-22T08:50:19.463Z,99669.09
2022-11-22T08:53:56.872Z,99671.42
2022-11-22T08:57:34.360Z,99667.02
2022-11-22T09:01:15.634Z,99658.60
2022-11-22T09:04:50.178Z,99655.75
2022-11-22T09:08:29.019Z,99652.14
2022-11-22T09:12:05.892Z,99651.77
2022-11-22T09:15:43.496Z,99660.16
2022-11-22T09:19:20.453Z,99662.01
2022-11-22T09:22:58.288Z,99643.20
2022-11-22T09:26:35.808Z,99628.94
2022-11-22T09:30:14.004Z,99632.58
2022-11-22T09:33:51.425Z,99623.58
2022-11-22T09:37:29.541Z,99616.91
2022-11-22T09:41:40.854Z,99618.10
2022-11-22T09:45:23.245Z,99619.02
2022-11-22T09:48:42.458Z,99613.56
2022-11-22T09:52:36.375Z,99605.73
2022-11-22T09:56:01.104Z,99597.90
2022-11-22T09:59:39.797Z,99589.73
2022-11-22T10:03:22.732Z,99586.80
2022-11-22T10:06:56.445Z,99578.52
2022-11-22T10:10:32.587Z,99589.39
2022-11-22T10:14:12.077Z,99586.02
2022-11-22T10:17:54.776Z,99591.52
2022-11-22T10:21:19.992Z,99588.98
2022-11-22T10:25:00.355Z,99588.79
2022-11-22T10:28:37.173Z,99584.45
2022-11-22T10:32:41.175Z,99586.10
2022-11-22T10:36:27.430Z,99580.09
2022-11-22T10:39:56.565Z,99586.86
2022-11-22T10:43:23.210Z,99585.55
2022-11-22T10:46:57.023Z,99585.73
2022-11-22T10:51:07.600Z,99582.11
2022-11-22T10:54:34.492Z,99571.91
2022-11-22T10:58:14.406Z,99569.14
2022-11-22T11:01:42.239Z,99573.95
2022-11-22T11:05:18.178Z,99577.16
2022-11-22T11:12:38.567Z,99582.40
2022-11-22T11:16:09.739Z,99577.20
2022-11-22T11:19:46.942Z,99575.79
2022-11-22T11:23:20.232Z,99579.81
2022-11-22T11:26:59.698Z,99579.65
2022-11-22T11:31:08.898Z,99566.73
2022-11-22T11:34:25.934Z,99561.09
2022-11-22T11:37:57.169Z,99551.04
2022-11-22T11:41:43.119Z,99551.66
2022-11-22T11:45:29.684Z,99550.67
2022-11-22T11:48:52.233Z,99545.59
2022-11-22T11:52:30.035Z,99539.43
2022-11-22T11:56:34.260Z,99546.23
2022-11-22T11:59:50.593Z,99546.47
2022-11-22T12:03:28.806Z,99547.30
2022-11-22T12:07:17.539Z,99550.28
2022-11-22T12:10:58.932Z,99548.92
2022-11-22T12:14:20.674Z,99548.08
2022-11-22T12:18:01.035Z,99544.66
2022-11-22T12:22:02.723Z,99543.09
2022-11-22T12:25:36.404Z,99543.48
2022-11-22T12:28:50.864Z,99552.64
2022-11-22T12:32:35.432Z,99553.23
2022-11-22T12:36:15.182Z,99551.77
2022-11-22T12:39:49.226Z,99546.66
2022-11-22T12:43:26.493Z,99548.64
2022-11-22T12:47:06.760Z,99537.95
2022-11-22T12:50:46.630Z,99533.70
2022-11-22T12:54:20.323Z,99539.22
2022-11-22T12:57:59.354Z,99547.70
2022-11-22T13:01:33.459Z,99545.66
2022-11-22T13:05:10.980Z,99548.86
2022-11-22T13:09:04.160Z,99547.40
2022-11-22T13:12:33.555Z,99551.98
2022-11-22T13:16:06.347Z,99557.63
2022-11-22T13:19:54.391Z,99555.04
2022-11-22T13:23:31.206Z,99558.14
2022-11-22T13:26:59.763Z,99554.55
2022-11-22T13:30:42.074Z,99550.56
2022-11-22T13:34:25.720Z,99544.21
2022-11-22T13:37:58.815Z,99551.63
2022-11-22T13:41:29.658Z,99552.19
2022-11-22T13:45:02.346Z,99555.27
2022-11-22T13:48:40.267Z,99552.73
2022-11-22T13:52:17.855Z,99547.45
2022-11-22T13:55:58.016Z,99540.48
2022-11-22T13:59:46.005Z,99542.84
2022-11-22T14:03:36.119Z,99540.71
2022-11-22T14:07:10.645Z,99537.64
2022-11-22T14:10:36.817Z,99531.73
2022-11-22T14:14:12.608Z,99533.17
2022-11-22T14:17:57.467Z,99537.91
2022-11-22T14:21:37.102Z,99536.23
2022-11-22T14:25:03.126Z,99537.39
2022-11-22T14:29:13.605Z,99542.52
2022-11-22T14:32:26.833Z,99545.81
2022-11-22T14:36:07.815Z,99545.41
2022-11-22T14:39:45.431Z,99544.09
2022-11-22T14:43:22.608Z,99545.64
2022-11-22T14:47:17.200Z,99543.27
2022-11-22T14:50:44.112Z,99543.65
2022-11-22T14:54:30.979Z,99532.48
2022-11-22T14:57:56.835Z,99534.68
2022-11-22T15:01:56.679Z,99530.81
2022-11-22T15:09:12.683Z,99537.79
2022-11-22T15:09:42.280Z,99536.55
2022-11-22T15:13:01.211Z,99539.20
2022-11-22T15:57:24.509Z,99555.54
2022-11-22T16:00:44.564Z,99550.98
2022-11-22T16:06:07.071Z,99553.83
2022-11-22T16:08:26.621Z,99556.22
2022-11-22T16:12:07.072Z,99550.73
2022-11-22T16:15:39.876Z,99553.05
2022-11-22T16:19:27.027Z,99553.25
2022-11-22T16:23:37.681Z,99546.86
2022-11-22T16:27:17.296Z,99549.16
2022-11-22T16:30:49.645Z,99552.09
2022-11-22T16:34:16.083Z,99551.27
2022-11-22T16:37:49.762Z,99553.26
2022-11-22T16:45:32.296Z,99555.36
2022-11-22T16:49:03.530Z,99554.02
2022-11-22T16:52:33.713Z,99561.24
2022-11-22T16:56:31.863Z,99566.11
2022-11-22T16:59:55.979Z,99569.20
2022-11-22T17:03:59.348Z,99570.80
2022-11-22T17:07:18.307Z,99571.13
2022-11-22T17:11:15.888Z,99568.75
2022-11-22T17:14:34.006Z,99573.68
2022-11-22T17:18:08.644Z,99571.21
2022-11-22T17:21:46.362Z,99567.08
2022-11-22T17:25:24.253Z,99572.11
2022-11-22T17:29:01.981Z,99577.88
2022-11-22T17:36:55.889Z,99575.63
2022-11-22T17:40:59.446Z,99568.88
2022-11-22T17:44:16.481Z,99572.41
2022-11-22T17:47:49.086Z,99569.38
2022-11-22T17:51:28.334Z,99571.94
2022-11-22T17:55:08.458Z,99571.54
2022-11-22T17:58:42.588Z,99572.02
2022-11-22T18:02:19.575Z,99574.56
2022-11-22T18:05:57.894Z,99571.48
2022-11-22T18:09:35.599Z,99570.25
2022-11-22T18:13:21.300Z,99571.90
2022-11-22T18:16:52.429Z,99576.15
2022-11-22T18:20:28.199Z,99582.73
2022-11-22T18:24:09.155Z,99587.40
2022-11-22T18:27:43.505Z,99588.95
2022-11-22T18:31:21.720Z,99589.17
2022-11-22T18:34:58.851Z,99592.69
2022-11-22T18:38:37.436Z,99596.74
2022-11-22T18:42:17.393Z,99597.72
2022-11-22T18:45:52.332Z,99593.08
2022-11-22T18:49:29.974Z,99592.34
2022-11-22T18:53:07.229Z,99594.15
2022-11-22T18:56:44.829Z,99589.80
2022-11-22T19:00:22.843Z,99590.76
2022-11-22T19:04:00.774Z,99594.20
2022-11-22T19:07:37.964Z,99596.02
2022-11-22T19:11:20.390Z,99599.95
2022-11-22T19:14:53.406Z,99597.41
2022-11-22T19:18:42.750Z,99603.08
2022-11-22T19:22:09.108Z,99601.44
2022-11-22T19:25:46.905Z,99600.10
2022-11-22T19:29:24.736Z,99605.06
2022-11-22T19:33:02.384Z,99603.82
2022-11-22T19:36:40.911Z,99608.91
2022-11-22T19:40:17.690Z,99616.22
2022-11-22T19:43:56.315Z,99622.35
2022-11-22T19:47:33.201Z,99630.59
2022-11-22T19:51:13.836Z,99634.94
2022-11-22T19:54:47.996Z,99638.07
2022-11-22T19:58:25.801Z,99639.48
2022-11-22T20:02:04.735Z,99639.00
2022-11-22T20:05:42.234Z,99641.42
2022-11-22T20:09:19.268Z,99642.77
2022-11-22T20:12:56.823Z,99645.48
2022-11-22T20:16:35.758Z,99640.54
2022-11-22T20:20:12.646Z,99640.63
2022-11-22T20:23:51.339Z,99638.53
2022-11-22T20:27:28.765Z,99638.53
2022-11-22T20:31:09.712Z,99629.91
2022-11-22T20:34:42.944Z,99632.94
2022-11-22T20:38:22.389Z,99630.66
2022-11-22T20:42:31.968Z,99630.21
2022-11-22T20:45:35.956Z,99635.81
2022-11-22T20:49:13.658Z,99631.66
2022-11-22T20:52:52.286Z,99626.06
2022-11-22T20:56:28.967Z,99620.46
2022-11-22T21:00:07.285Z,99623.73
2022-11-22T21:03:45.400Z,99623.32
2022-11-22T21:07:21.982Z,99622.11
2022-11-22T21:11:20.848Z,99619.25
2022-11-22T21:14:41.078Z,99615.14
2022-11-22T21:18:31.418Z,99613.17
2022-11-22T21:21:52.797Z,99612.60
2022-11-22T21:25:31.341Z,99610.20
2022-11-22T21:29:16.237Z,99607.61
2022-11-22T21:32:46.985Z,99611.08
2022-11-22T21:36:26.996Z,99615.72
2022-11-22T21:40:02.804Z,99621.98
2022-11-22T21:43:39.549Z,99622.17
2022-11-22T21:47:29.138Z,99625.78
2022-11-22T21:50:57.230Z,99625.14
2022-11-22T21:54:34.618Z,99632.55
2022-11-22T21:58:10.520Z,99638.84
2022-11-22T22:01:47.992Z,99642.16
2022-11-22T22:05:28.438Z,99641.20
2022-11-22T22:09:03.900Z,99640.07
2022-11-22T22:12:41.195Z,99638.23
2022-11-22T22:16:24.213Z,99638.54
2022-11-22T22:19:56.160Z,99637.24
2022-11-22T22:23:35.074Z,99642.57
2022-11-22T22:27:11.370Z,99642.95
2022-11-22T22:30:48.884Z,99639.71
2022-11-22T22:34:26.669Z,99641.95
2022-11-22T22:38:04.476Z,99638.37
2022-11-22T22:41:42.078Z,99641.93
2022-11-22T22:45:19.884Z,99650.09
2022-11-22T22:48:57.589Z,99652.37
2022-11-22T22:52:35.293Z,99650.57
2022-11-22T22:56:14.543Z,99653.21
2022-11-22T22:59:50.701Z,99647.73
2022-11-22T23:03:29.020Z,99643.48
2022-11-22T23:07:06.281Z,99647.42
2022-11-22T23:10:44.428Z,99655.79
2022-11-22T23:14:26.231Z,99659.90
2022-11-22T23:17:59.510Z,99663.47
2022-11-22T23:21:36.925Z,99659.00
2022-11-22T23:25:14.731Z,99659.67
2022-11-22T23:28:53.585Z,99656.13
2022-11-22T23:32:31.494Z,99654.34
2022-11-22T23:36:10.948Z,99661.93
2022-11-22T23:39:45.138Z,99659.11
2022-11-22T23:43:23.150Z,99663.44
2022-11-22T23:47:00.650Z,99666.30
2022-11-22T23:50:38.907Z,99668.50
2022-11-22T23:54:17.561Z,99665.45
2022-11-22T23:57:56.630Z,99671.32
